KGRR/GRR METAR and TAF weather

Enter ICAO airport designator
Station Type Date Time Source
KGRR METAR 2020/08/15 16:53 UTC NOAA

KGRR 151653Z 00000KT 10SM FEW042 FEW140 BKN180 BKN250 29/19 A2996 RMK AO2 SLP139 T02890189


Station Type Date Time Source
KGRR Decoded METAR 2020/08/15 16:53 UTC NOAA

GERALD R. FORD INTERNATIONAL, MI, United States (KGRR) 42-53N 085-31W 239M
Aug 15, 2020 - 12:53 PM EDT / 2020.08.15 1653 UTC
Wind: Calm:0
Visibility: 10 mile(s):0
Sky conditions: mostly cloudy
Temperature: 84.0 F (28.9 C)
Dew Point: 66.0 F (18.9 C)
Relative Humidity: 54%
Pressure (altimeter): 29.96 in. Hg (1014 hPa)
ob: KGRR 151653Z 00000KT 10SM FEW042 FEW140 BKN180 BKN250 29/19 A2996 RMK AO2 SLP139 T02890189
cycle: 17

Station Type Date Time Source
KGRR TAF 2020/08/15 12:48 UTC NOAA

TAF KGRR 151145Z 1512/1612 08004KT P6SM MIFG FEW060 FEW250
FM151300 17004KT P6SM BKN250
FM152000 24007KT P6SM VCTS BKN035CB
FM152300 25007KT P6SM OVC050
FM160400 26003KT 4SM BR OVC050
FM160600 28006KT 2SM BR OVC015

Example: see airport list